createdAt,value
2022-10-01T00:02:07.576Z,4.23
2022-10-01T00:07:04.626Z,4.47
2022-10-01T00:11:59.749Z,5.93
2022-10-01T00:16:53.390Z,5.00
2022-10-01T00:21:48.098Z,4.97
2022-10-01T00:26:43.020Z,4.53
2022-10-01T00:31:36.719Z,4.37
2022-10-01T00:36:31.706Z,4.43
2022-10-01T00:41:26.945Z,4.47
2022-10-01T00:46:26.052Z,4.57
2022-10-01T00:51:21.145Z,5.20
2022-10-01T00:56:14.504Z,4.60
2022-10-01T01:01:09.341Z,4.63
2022-10-01T01:06:05.806Z,5.60
2022-10-01T01:11:13.723Z,5.90
2022-10-01T01:16:15.862Z,6.63
2022-10-01T01:21:30.627Z,6.37
2022-10-01T01:26:41.182Z,6.73
2022-10-01T01:31:42.476Z,6.37
2022-10-01T01:36:38.454Z,6.93
2022-10-01T01:41:38.541Z,6.47
2022-10-01T01:46:37.893Z,7.23
2022-10-01T01:51:39.677Z,6.77
2022-10-01T01:56:34.324Z,6.93
2022-10-01T02:01:40.558Z,7.30
2022-10-01T02:06:51.411Z,6.90
2022-10-01T02:12:03.654Z,7.53
2022-10-01T02:17:06.963Z,7.17
2022-10-01T02:22:04.458Z,7.07
2022-10-01T02:27:02.169Z,7.73
2022-10-01T02:31:58.333Z,7.30
2022-10-01T02:36:56.522Z,7.20
2022-10-01T02:41:53.150Z,7.60
2022-10-01T02:46:55.652Z,7.57
2022-10-01T02:52:00.595Z,7.60
2022-10-01T02:57:11.439Z,7.87
2022-10-01T03:02:05.132Z,7.87
2022-10-01T03:07:03.569Z,7.87
2022-10-01T03:11:57.257Z,7.90
2022-10-01T03:16:50.435Z,7.87
2022-10-01T03:21:43.673Z,8.47
2022-10-01T03:26:38.357Z,8.87
2022-10-01T03:31:32.140Z,8.73
2022-10-01T03:36:25.691Z,9.03
2022-10-01T03:41:19.036Z,9.00
2022-10-01T03:46:13.705Z,9.73
2022-10-01T03:51:07.648Z,9.67
2022-10-01T03:56:01.831Z,9.87
2022-10-01T04:00:55.984Z,10.07
2022-10-01T04:05:51.196Z,9.17
2022-10-01T04:10:44.425Z,9.63
2022-10-01T04:15:37.735Z,9.10
2022-10-01T04:20:30.939Z,9.60
2022-10-01T04:25:25.590Z,9.60
2022-10-01T04:30:18.970Z,9.23
2022-10-01T04:35:12.328Z,9.47
2022-10-01T04:40:06.713Z,9.30
2022-10-01T04:45:01.322Z,8.43
2022-10-01T04:49:54.507Z,9.70
2022-10-01T04:54:48.351Z,9.10
2022-10-01T04:59:41.518Z,9.13
2022-10-01T05:04:36.202Z,8.60
2022-10-01T05:09:29.434Z,9.83
2022-10-01T05:14:22.652Z,9.27
2022-10-01T05:19:16.245Z,9.87
2022-10-01T05:24:10.983Z,10.87
2022-10-01T05:29:04.575Z,10.07
2022-10-01T05:33:57.813Z,9.93
2022-10-01T05:38:52.441Z,9.47
2022-10-01T05:43:49.734Z,9.97
2022-10-01T05:48:43.080Z,9.87
2022-10-01T05:53:38.190Z,8.63
2022-10-01T05:58:31.632Z,9.47
2022-10-01T06:03:28.585Z,10.77
2022-10-01T06:08:22.779Z,10.40
2022-10-01T06:13:17.778Z,10.30
2022-10-01T06:18:13.724Z,9.87
2022-10-01T06:23:12.500Z,9.37
2022-10-01T06:28:08.484Z,9.20
2022-10-01T06:33:03.666Z,8.33
2022-10-01T06:37:56.887Z,7.93
2022-10-01T06:42:56.617Z,7.40
2022-10-01T06:47:55.648Z,7.73
2022-10-01T06:52:51.472Z,7.37
2022-10-01T06:57:44.828Z,7.50
2022-10-01T07:02:41.167Z,7.40
2022-10-01T07:07:37.154Z,7.80
2022-10-01T07:12:30.392Z,7.13
2022-10-01T07:17:23.973Z,8.30
2022-10-01T07:22:19.490Z,7.43
2022-10-01T07:27:12.930Z,7.00
2022-10-01T07:32:08.866Z,6.60
2022-10-01T07:37:02.439Z,7.07
2022-10-01T07:41:57.104Z,6.77
2022-10-01T07:46:50.325Z,6.60
2022-10-01T07:51:44.516Z,6.00
2022-10-01T07:56:37.796Z,5.80
2022-10-01T08:01:33.058Z,6.37
2022-10-01T08:06:26.686Z,5.77
2022-10-01T08:11:21.067Z,5.87
2022-10-01T08:16:14.826Z,5.40
2022-10-01T08:21:10.206Z,5.30
2022-10-01T08:26:07.053Z,5.07
2022-10-01T08:31:00.966Z,5.20
2022-10-01T08:35:54.135Z,5.10
2022-10-01T08:40:51.838Z,4.53
2022-10-01T08:45:51.065Z,5.57
2022-10-01T08:50:53.830Z,5.27
2022-10-01T08:55:52.237Z,4.70
2022-10-01T09:00:49.056Z,4.60
2022-10-01T09:06:08.908Z,4.20
2022-10-01T09:11:13.601Z,4.27
2022-10-01T09:16:16.374Z,4.33
2022-10-01T09:21:21.009Z,3.80
2022-10-01T09:26:15.700Z,4.20
2022-10-01T09:31:19.831Z,3.80
2022-10-01T09:36:26.368Z,3.67
2022-10-01T09:41:22.405Z,4.00
2022-10-01T09:46:18.172Z,4.30
2022-10-01T09:51:17.555Z,3.83
2022-10-01T09:56:23.529Z,4.37
2022-10-01T10:01:38.074Z,3.70
2022-10-01T10:06:33.386Z,4.10
2022-10-01T10:11:37.538Z,3.90
2022-10-01T10:17:31.017Z,3.37
2022-10-01T10:29:09.378Z,3.90
2022-10-01T10:34:35.583Z,3.73
2022-10-01T10:39:41.304Z,3.63
2022-10-01T10:44:40.151Z,3.50
2022-10-01T10:49:40.924Z,3.70
2022-10-01T10:54:37.961Z,3.40
2022-10-01T10:59:37.373Z,3.43
2022-10-01T11:04:42.998Z,3.57
2022-10-01T11:10:16.846Z,3.20
2022-10-01T11:15:34.199Z,3.50
2022-10-01T11:20:40.293Z,2.87
2022-10-01T11:25:49.362Z,2.90
2022-10-01T11:31:06.512Z,3.40
2022-10-01T11:36:09.335Z,3.03
2022-10-01T11:41:19.123Z,3.03
2022-10-01T11:46:24.509Z,3.20
2022-10-01T11:51:26.411Z,3.13
2022-10-01T11:56:46.160Z,2.63
2022-10-01T12:01:53.002Z,2.87
2022-10-01T12:06:58.035Z,3.00
2022-10-01T12:12:01.867Z,3.40
2022-10-01T12:17:06.431Z,3.33
2022-10-01T12:22:07.086Z,2.43
2022-10-01T12:27:34.017Z,2.63
2022-10-01T12:32:44.400Z,2.77
2022-10-01T12:38:03.248Z,2.60
2022-10-01T12:43:20.814Z,2.93
2022-10-01T12:48:27.975Z,2.50
2022-10-01T12:53:33.348Z,2.20
2022-10-01T12:58:53.053Z,2.43
2022-10-01T13:04:32.998Z,5.00
2022-10-01T13:09:48.978Z,3.87
2022-10-01T13:14:45.206Z,2.70
2022-10-01T13:19:53.305Z,3.13
2022-10-01T13:24:53.909Z,3.20
2022-10-01T13:29:59.993Z,3.10
2022-10-01T13:34:56.304Z,2.90
2022-10-01T13:39:50.109Z,6.23
2022-10-01T13:44:43.563Z,2.93
2022-10-01T13:49:39.010Z,3.13
2022-10-01T13:54:40.968Z,2.93
2022-10-01T13:59:37.827Z,3.00
2022-10-01T14:04:39.577Z,3.07
2022-10-01T14:09:42.366Z,3.20
2022-10-01T14:14:59.605Z,3.50
2022-10-01T14:19:54.558Z,3.20
2022-10-01T14:25:42.663Z,3.17
2022-10-01T14:30:49.764Z,3.10
2022-10-01T14:35:56.728Z,2.77
2022-10-01T14:41:02.042Z,2.60
2022-10-01T14:46:22.356Z,3.27
2022-10-01T14:51:28.127Z,2.70
2022-10-01T14:56:23.647Z,3.07
2022-10-01T15:01:21.836Z,2.80
2022-10-01T15:06:18.083Z,2.27
2022-10-01T15:11:18.322Z,1.90
2022-10-01T15:16:17.530Z,1.90
2022-10-01T15:21:21.068Z,1.90
2022-10-01T15:26:21.398Z,1.93
2022-10-01T15:31:19.986Z,1.73
2022-10-01T15:36:18.313Z,2.50
2022-10-01T15:41:31.892Z,1.97
2022-10-01T15:46:34.857Z,2.10
2022-10-01T15:51:30.407Z,1.90
2022-10-01T15:56:25.910Z,1.57
2022-10-01T16:01:24.096Z,1.70
2022-10-01T16:06:23.840Z,1.60
2022-10-01T16:11:23.594Z,1.60
2022-10-01T16:16:25.654Z,1.40
2022-10-01T16:21:39.621Z,1.17
2022-10-01T16:26:40.193Z,0.90
2022-10-01T16:31:36.935Z,1.67
2022-10-01T16:36:34.420Z,1.13
2022-10-01T16:41:30.024Z,2.50
2022-10-01T16:46:23.520Z,3.60
2022-10-01T16:51:17.086Z,1.40
2022-10-01T16:56:12.296Z,1.20
2022-10-01T17:01:10.452Z,1.20
2022-10-01T17:06:04.275Z,1.00
2022-10-01T17:11:01.818Z,1.97
2022-10-01T17:15:59.808Z,1.40
2022-10-01T17:20:53.327Z,1.50
2022-10-01T17:25:47.524Z,1.50
2022-10-01T17:30:42.171Z,1.60
2022-10-01T17:35:52.308Z,1.70
2022-10-01T17:40:46.276Z,1.63
2022-10-01T17:45:39.775Z,1.50
2022-10-01T17:50:33.120Z,1.80
2022-10-01T17:55:29.116Z,1.70
2022-10-01T18:00:22.485Z,1.43
2022-10-01T18:05:17.211Z,1.47
2022-10-01T18:10:13.980Z,1.10
2022-10-01T18:15:10.751Z,1.10
2022-10-01T18:20:04.135Z,0.67
2022-10-01T18:24:57.463Z,0.80
2022-10-01T18:29:50.784Z,0.60
2022-10-01T18:34:54.455Z,0.70
2022-10-01T18:39:56.870Z,0.60
2022-10-01T18:44:55.918Z,0.70
2022-10-01T18:50:22.688Z,0.83
2022-10-01T18:55:54.020Z,2.00
2022-10-01T19:01:01.860Z,2.70
2022-10-01T19:06:47.439Z,1.00
2022-10-01T19:11:54.348Z,0.73
2022-10-01T19:17:14.234Z,0.70
2022-10-01T19:22:21.508Z,0.60
2022-10-01T19:27:33.726Z,0.50
2022-10-01T19:32:34.717Z,0.77
2022-10-01T19:37:37.674Z,0.53
2022-10-01T19:42:38.290Z,0.70
2022-10-01T19:47:41.904Z,0.60
2022-10-01T19:52:41.346Z,0.60
2022-10-01T19:57:39.087Z,0.30
2022-10-01T20:02:37.805Z,0.50
2022-10-01T20:07:42.559Z,0.50
2022-10-01T20:12:48.371Z,0.40
2022-10-01T20:18:08.097Z,0.50
2022-10-01T20:23:35.089Z,0.30
2022-10-01T20:28:40.871Z,0.30
2022-10-01T20:33:47.671Z,0.50
2022-10-01T20:38:52.092Z,0.77
2022-10-01T20:43:50.271Z,0.60
2022-10-01T20:48:50.730Z,0.40
2022-10-01T20:53:54.435Z,0.37
2022-10-01T20:58:53.870Z,0.87
2022-10-01T21:03:54.316Z,0.50
2022-10-01T21:08:57.733Z,0.70
2022-10-01T21:13:59.932Z,1.07
2022-10-01T21:19:13.005Z,0.70
2022-10-01T21:24:33.311Z,0.70
2022-10-01T21:30:00.683Z,0.80
2022-10-01T21:35:10.134Z,0.70
2022-10-01T21:40:24.993Z,0.60
2022-10-01T21:45:29.896Z,0.73
2022-10-01T21:50:38.740Z,0.77
2022-10-01T21:55:53.773Z,1.00
2022-10-01T22:01:01.397Z,1.20
2022-10-01T22:06:04.465Z,1.00
2022-10-01T22:11:05.449Z,0.90
2022-10-01T22:16:07.712Z,0.90
2022-10-01T22:21:08.769Z,0.90
2022-10-01T22:26:14.217Z,0.93
2022-10-01T22:31:15.471Z,1.50
2022-10-01T22:36:16.533Z,1.17
2022-10-01T22:41:21.510Z,1.37
2022-10-01T22:46:42.813Z,1.40
2022-10-01T22:51:51.361Z,1.30
2022-10-01T22:57:03.435Z,1.40
2022-10-01T23:02:10.035Z,1.30
2022-10-01T23:07:17.738Z,1.40
2022-10-01T23:12:24.878Z,1.50
2022-10-01T23:17:27.839Z,1.50
2022-10-01T23:22:42.505Z,1.93
2022-10-01T23:27:56.820Z,1.50
2022-10-01T23:33:17.478Z,1.63
2022-10-01T23:38:37.653Z,1.80
2022-10-01T23:43:38.659Z,1.73
2022-10-01T23:48:41.462Z,2.10
2022-10-01T23:53:56.711Z,1.50
2022-10-01T23:59:03.436Z,1.70
